King of Scandinavia — OVOL2 — position and weather

sailwx.info

Track history (hours):
 
Tides and Currents Weather Stations Pressure Air Temp Water Temp Dewpoint Dewpoint Depression Visibility Wind Speed Wind Dir Waves Ship Positions

King of Scandinavia

Ship's website: http://www.dfds.co.uk/DSW/EN/OnBoard/na/KING.htm

Last reported at 2014-Jul-29 20:33 UTC. Time now 2014-Jul-30 00:54 UTC.
Position N 53°17' E 003°04'.

Length 166 m; beam 27.6 m; draft 6.2 m.

Type: Passenger vessel. MMSI: 220449000.

Date/timePositionNaut miles runAvg speedWind from/ knotsBaromVisibWave heightAir tempDewpointWater temp
2014-Jul-29 20:33N 53°17' E 003°04'6514.9
2014-Jul-29 16:12N 52°33' E 004°24'913.3
2014-Jul-29 15:34N 52°28' E 004°35'0 0.3
2014-Jul-29 14:33N 52°28' E 004°35'0 0.0
2014-Jul-29 13:33N 52°28' E 004°35'0 0.0
2014-Jul-29 12:30N 52°28' E 004°35'0 0.0
2014-Jul-29 11:33N 52°28' E 004°35'0 0.0
2014-Jul-29 10:33N 52°28' E 004°35'0 0.0
2014-Jul-29 09:33N 52°28' E 004°35'0 0.0
2014-Jul-29 08:33N 52°28' E 004°35'0 0.0
2014-Jul-29 07:33N 52°28' E 004°35'10 9.6
2014-Jul-29 06:33N 52°33' E 004°22'15417.1
2014-Jul-28 21:33N 54°08' E 000°59'1917.9
2014-Jul-28 20:31N 54°18' E 000°32'1718.3
2014-Jul-28 19:33N 54°28' E 000°07'1918.6
2014-Jul-28 18:33N 54°38' W 000°20'1918.8
2014-Jul-28 17:33N 54°48' W 000°47'2318.6
2014-Jul-28 16:19N 55°00' W 001°21'17 1.7
2014-Jul-28 06:31N 54°52' W 000°55'3015.4
2014-Jul-28 04:33N 54°35' W 000°12'1717.0
2014-Jul-28 03:33N 54°26' E 000°13'1817.4
2014-Jul-28 02:30N 54°16' E 000°40'16816.5
2014-Jul-27 16:19N 52°33' E 004°23'912.0
2014-Jul-27 15:34N 52°28' E 004°35'0 0.0
2014-Jul-27 14:33N 52°28' E 004°35'0 0.0
2014-Jul-27 13:33N 52°28' E 004°35'0 0.0
2014-Jul-27 12:33N 52°28' E 004°35'0 0.5
2014-Jul-27 11:33N 52°28' E 004°34'1212.1
2014-Jul-27 10:33N 52°38' E 004°24'9 8.6
2014-Jul-27 09:33N 52°30' E 004°29'4 4.3
2014-Jul-27 08:31N 52°28' E 004°35'0 0.0
2014-Jul-27 07:31N 52°28' E 004°35'9 9.3
2014-Jul-27 06:33N 52°33' E 004°23'5918.9
2014-Jul-27 03:27N 53°12' E 003°11'1517.2
2014-Jul-27 02:33N 53°23' E 002°52'5716.9
2014-Jul-26 23:10N 53°55' E 001°32'1017.3
2014-Jul-26 22:33N 54°01' E 001°18'1717.5
2014-Jul-26 21:33N 54°11' E 000°53'1817.6
2014-Jul-26 20:34N 54°20' E 000°27'1717.3
2014-Jul-26 19:33N 54°30' E 000°03'1817.9
2014-Jul-26 18:33N 54°40' W 000°23'1818.1
2014-Jul-26 17:33N 54°50' W 000°49'1818.1
2014-Jul-26 16:33N 54°59' W 001°17'4 1.0
2014-Jul-26 12:33N 54°56' W 001°20'0 0.2
2014-Jul-26 11:30N 54°56' W 001°20'4 1.0
2014-Jul-26 07:27N 54°60' W 001°18'1415.9
2014-Jul-26 06:33N 54°52' W 000°57'2316.2
2014-Jul-26 05:08N 54°40' W 000°24'1017.1
2014-Jul-26 04:33N 54°34' W 000°09'1717.0
2014-Jul-26 03:33N 54°25' E 000°15'1716.8
2014-Jul-26 02:33N 54°16' E 000°39'1717.5
2014-Jul-26 01:33N 54°06' E 001°04'1818.4
2014-Jul-26 00:33N 53°57' E 001°31'5518.3
2014-Jul-25 21:33N 53°26' E 002°48'1515.4
2014-Jul-25 20:33N 53°15' E 003°06'6014.6
2014-Jul-25 16:26N 52°35' E 004°20'1113.0
2014-Jul-25 15:33N 52°28' E 004°35'0 0.0
2014-Jul-25 14:33N 52°28' E 004°35'0 0.0
2014-Jul-25 13:33N 52°28' E 004°35'0 0.0
2014-Jul-25 12:33N 52°28' E 004°35'0 0.0
2014-Jul-25 11:33N 52°28' E 004°35'0 0.0
2014-Jul-25 10:33N 52°28' E 004°35'0 0.0
2014-Jul-25 09:33N 52°28' E 004°35'0 0.0
2014-Jul-25 08:33N 52°28' E 004°35'0 0.0
2014-Jul-25 07:33N 52°28' E 004°35'1110.9
2014-Jul-25 06:34N 52°34' E 004°21'1817.8
2014-Jul-25 05:34N 52°46' E 003°59'1818.4
2014-Jul-25 04:34N 52°58' E 003°36'1918.1
2014-Jul-25 03:31N 53°11' E 003°13'1717.7
2014-Jul-25 02:33N 53°23' E 002°52'3417.2
2014-Jul-25 00:34N 53°43' E 002°06'1717.1
2014-Jul-24 23:33N 53°52' E 001°41'1717.1
2014-Jul-24 22:33N 54°01' E 001°16'1717.3
2014-Jul-24 21:34N 54°11' E 000°52'1717.5
2014-Jul-24 20:34N 54°20' E 000°27'1717.5
2014-Jul-24 19:34N 54°30' E 000°03'1817.6
2014-Jul-24 18:34N 54°40' W 000°23'1817.9
2014-Jul-24 17:33N 54°49' W 000°49'1817.9
2014-Jul-24 16:33N 54°59' W 001°16'18 1.8
2014-Jul-24 06:31N 54°50' W 000°49'2218.4
2014-Jul-24 05:19N 54°37' W 000°17'1417.9
2014-Jul-24 04:34N 54°30' E 000°02'1717.2
2014-Jul-24 03:34N 54°20' E 000°27'1515.4
2014-Jul-24 02:34N 54°11' E 000°49'1515.4
2014-Jul-24 01:33N 54°03' E 001°11'1616.2
2014-Jul-24 00:33N 53°55' E 001°35'1716.7
2014-Jul-23 23:34N 53°46' E 001°59'1717.1
2014-Jul-23 22:33N 53°36' E 002°22'1816.8
2014-Jul-23 21:29N 53°26' E 002°47'1516.1
2014-Jul-23 20:33N 53°15' E 003°05'1615.6
2014-Jul-23 19:33N 53°05' E 003°24'1515.4
2014-Jul-23 18:33N 52°54' E 003°42'1515.3
2014-Jul-23 17:33N 52°44' E 004°02'1515.3
2014-Jul-23 16:34N 52°34' E 004°21'1110.0
2014-Jul-23 15:29N 52°28' E 004°35'0 0.0
2014-Jul-23 14:32N 52°28' E 004°35'0 0.0
2014-Jul-23 13:32N 52°28' E 004°35'0 0.0
2014-Jul-23 12:29N 52°28' E 004°35'0 0.0
2014-Jul-23 11:32N 52°28' E 004°35'0 0.0
2014-Jul-23 10:32N 52°28' E 004°35'0 0.0
2014-Jul-23 09:32N 52°28' E 004°35'0 0.0
2014-Jul-23 08:32N 52°28' E 004°35'0 0.0
2014-Jul-23 07:34N 52°28' E 004°35'1111.1
2014-Jul-23 06:33N 52°34' E 004°20'1615.9
2014-Jul-23 05:33N 52°45' E 004°01'1917.2
2014-Jul-23 04:25N 52°58' E 003°37'3418.2
2014-Jul-23 02:33N 53°21' E 002°56'2519.0
2014-Jul-23 01:15N 53°36' E 002°23'1319.0
2014-Jul-23 00:33N 53°44' E 002°04'1918.8
2014-Jul-22 23:33N 53°54' E 001°37'2718.7
2014-Jul-22 22:07N 54°08' E 000°59'1118.8
2014-Jul-22 21:33N 54°14' E 000°43'1918.8
2014-Jul-22 20:33N 54°24' E 000°17'1818.4
2014-Jul-22 19:33N 54°35' W 000°10'1918.1
2014-Jul-22 18:31N 54°45' W 000°37'1515.8
2014-Jul-22 17:33N 54°53' W 000°59'7 0.7
2014-Jul-22 07:11N 54°57' W 001°09'1618.6
2014-Jul-22 06:19N 54°48' W 000°46'1518.7
2014-Jul-22 05:30N 54°40' W 000°24'1718.4
2014-Jul-22 04:33N 54°30' E 000°01'1817.8
2014-Jul-22 03:33N 54°21' E 000°27'2117.3
2014-Jul-22 02:22N 54°09' E 000°56'15415.6
2014-Jul-21 16:33N 52°35' E 004°19'1212.0
2014-Jul-21 15:33N 52°28' E 004°35'0 0.0
2014-Jul-21 14:32N 52°28' E 004°35'0 0.0
2014-Jul-21 13:26N 52°28' E 004°35'0 0.0
2014-Jul-21 12:32N 52°28' E 004°35'0 0.0
2014-Jul-21 11:32N 52°28' E 004°35'0 0.0
2014-Jul-21 10:29N 52°28' E 004°35'0 0.0
2014-Jul-21 09:32N 52°28' E 004°35'0 0.0
2014-Jul-21 08:29N 52°28' E 004°35'0 0.0
2014-Jul-21 07:33N 52°28' E 004°35'9 9.1
2014-Jul-21 06:34N 52°33' E 004°22'16417.8
2014-Jul-20 21:22N 54°13' E 000°46'1518.6
2014-Jul-20 20:34N 54°22' E 000°24'1818.4
2014-Jul-20 19:34N 54°31' W 000°02'1818.3
2014-Jul-20 18:34N 54°41' W 000°29'2018.2
2014-Jul-20 17:26N 54°53' W 000°58'1 0.1
2014-Jul-20 06:30N 54°53' W 000°57'1414.0
2014-Jul-20 05:30N 54°45' W 000°37'1515.5
2014-Jul-20 04:33N 54°37' W 000°15'1616.0
2014-Jul-20 03:33N 54°28' E 000°07'1616.3
2014-Jul-20 02:33N 54°19' E 000°31'  
Track history (hours):
 
Tides and Currents Weather Stations Pressure Air Temp Water Temp Dewpoint Dewpoint Depression Visibility Wind Speed Wind Dir Waves Ship Positions

King of Scandinavia

Ship's website: http://www.dfds.co.uk/DSW/EN/OnBoard/na/KING.htm

Last reported at 2014-Jul-29 20:33 UTC. Time now 2014-Jul-30 00:54 UTC.
Position N 53°17' E 003°04'.

Length 166 m; beam 27.6 m; draft 6.2 m.

Type: Passenger vessel. MMSI: 220449000.

Date/timePositionNaut miles runAvg speedWind from/ knotsBaromVisibWave heightAir tempDewpointWater temp
2014-Jul-29 20:33N 53°17' E 003°04'6514.9
2014-Jul-29 16:12N 52°33' E 004°24'913.3
2014-Jul-29 15:34N 52°28' E 004°35'0 0.3
2014-Jul-29 14:33N 52°28' E 004°35'0 0.0
2014-Jul-29 13:33N 52°28' E 004°35'0 0.0
2014-Jul-29 12:30N 52°28' E 004°35'0 0.0
2014-Jul-29 11:33N 52°28' E 004°35'0 0.0
2014-Jul-29 10:33N 52°28' E 004°35'0 0.0
2014-Jul-29 09:33N 52°28' E 004°35'0 0.0
2014-Jul-29 08:33N 52°28' E 004°35'0 0.0
2014-Jul-29 07:33N 52°28' E 004°35'10 9.6
2014-Jul-29 06:33N 52°33' E 004°22'15417.1
2014-Jul-28 21:33N 54°08' E 000°59'1917.9
2014-Jul-28 20:31N 54°18' E 000°32'1718.3
2014-Jul-28 19:33N 54°28' E 000°07'1918.6
2014-Jul-28 18:33N 54°38' W 000°20'1918.8
2014-Jul-28 17:33N 54°48' W 000°47'2318.6
2014-Jul-28 16:19N 55°00' W 001°21'17 1.7
2014-Jul-28 06:31N 54°52' W 000°55'3015.4
2014-Jul-28 04:33N 54°35' W 000°12'1717.0
2014-Jul-28 03:33N 54°26' E 000°13'1817.4
2014-Jul-28 02:30N 54°16' E 000°40'16816.5
2014-Jul-27 16:19N 52°33' E 004°23'912.0
2014-Jul-27 15:34N 52°28' E 004°35'0 0.0
2014-Jul-27 14:33N 52°28' E 004°35'0 0.0
2014-Jul-27 13:33N 52°28' E 004°35'0 0.0
2014-Jul-27 12:33N 52°28' E 004°35'0 0.5
2014-Jul-27 11:33N 52°28' E 004°34'1212.1
2014-Jul-27 10:33N 52°38' E 004°24'9 8.6
2014-Jul-27 09:33N 52°30' E 004°29'4 4.3
2014-Jul-27 08:31N 52°28' E 004°35'0 0.0
2014-Jul-27 07:31N 52°28' E 004°35'9 9.3
2014-Jul-27 06:33N 52°33' E 004°23'5918.9
2014-Jul-27 03:27N 53°12' E 003°11'1517.2
2014-Jul-27 02:33N 53°23' E 002°52'5716.9
2014-Jul-26 23:10N 53°55' E 001°32'1017.3
2014-Jul-26 22:33N 54°01' E 001°18'1717.5
2014-Jul-26 21:33N 54°11' E 000°53'1817.6
2014-Jul-26 20:34N 54°20' E 000°27'1717.3
2014-Jul-26 19:33N 54°30' E 000°03'1817.9
2014-Jul-26 18:33N 54°40' W 000°23'1818.1
2014-Jul-26 17:33N 54°50' W 000°49'1818.1
2014-Jul-26 16:33N 54°59' W 001°17'4 1.0
2014-Jul-26 12:33N 54°56' W 001°20'0 0.2
2014-Jul-26 11:30N 54°56' W 001°20'4 1.0
2014-Jul-26 07:27N 54°60' W 001°18'1415.9
2014-Jul-26 06:33N 54°52' W 000°57'2316.2
2014-Jul-26 05:08N 54°40' W 000°24'1017.1
2014-Jul-26 04:33N 54°34' W 000°09'1717.0
2014-Jul-26 03:33N 54°25' E 000°15'1716.8
2014-Jul-26 02:33N 54°16' E 000°39'1717.5
2014-Jul-26 01:33N 54°06' E 001°04'1818.4
2014-Jul-26 00:33N 53°57' E 001°31'5518.3
2014-Jul-25 21:33N 53°26' E 002°48'1515.4
2014-Jul-25 20:33N 53°15' E 003°06'6014.6
2014-Jul-25 16:26N 52°35' E 004°20'1113.0
2014-Jul-25 15:33N 52°28' E 004°35'0 0.0
2014-Jul-25 14:33N 52°28' E 004°35'0 0.0
2014-Jul-25 13:33N 52°28' E 004°35'0 0.0
2014-Jul-25 12:33N 52°28' E 004°35'0 0.0
2014-Jul-25 11:33N 52°28' E 004°35'0 0.0
2014-Jul-25 10:33N 52°28' E 004°35'0 0.0
2014-Jul-25 09:33N 52°28' E 004°35'0 0.0
2014-Jul-25 08:33N 52°28' E 004°35'0 0.0
2014-Jul-25 07:33N 52°28' E 004°35'1110.9
2014-Jul-25 06:34N 52°34' E 004°21'1817.8
2014-Jul-25 05:34N 52°46' E 003°59'1818.4
2014-Jul-25 04:34N 52°58' E 003°36'1918.1
2014-Jul-25 03:31N 53°11' E 003°13'1717.7
2014-Jul-25 02:33N 53°23' E 002°52'3417.2
2014-Jul-25 00:34N 53°43' E 002°06'1717.1
2014-Jul-24 23:33N 53°52' E 001°41'1717.1
2014-Jul-24 22:33N 54°01' E 001°16'1717.3
2014-Jul-24 21:34N 54°11' E 000°52'1717.5
2014-Jul-24 20:34N 54°20' E 000°27'1717.5
2014-Jul-24 19:34N 54°30' E 000°03'1817.6
2014-Jul-24 18:34N 54°40' W 000°23'1817.9
2014-Jul-24 17:33N 54°49' W 000°49'1817.9
2014-Jul-24 16:33N 54°59' W 001°16'18 1.8
2014-Jul-24 06:31N 54°50' W 000°49'2218.4
2014-Jul-24 05:19N 54°37' W 000°17'1417.9
2014-Jul-24 04:34N 54°30' E 000°02'1717.2
2014-Jul-24 03:34N 54°20' E 000°27'1515.4
2014-Jul-24 02:34N 54°11' E 000°49'1515.4
2014-Jul-24 01:33N 54°03' E 001°11'1616.2
2014-Jul-24 00:33N 53°55' E 001°35'1716.7
2014-Jul-23 23:34N 53°46' E 001°59'1717.1
2014-Jul-23 22:33N 53°36' E 002°22'1816.8
2014-Jul-23 21:29N 53°26' E 002°47'1516.1
2014-Jul-23 20:33N 53°15' E 003°05'1615.6
2014-Jul-23 19:33N 53°05' E 003°24'1515.4
2014-Jul-23 18:33N 52°54' E 003°42'1515.3
2014-Jul-23 17:33N 52°44' E 004°02'1515.3
2014-Jul-23 16:34N 52°34' E 004°21'1110.0
2014-Jul-23 15:29N 52°28' E 004°35'0 0.0
2014-Jul-23 14:32N 52°28' E 004°35'0 0.0
2014-Jul-23 13:32N 52°28' E 004°35'0 0.0
2014-Jul-23 12:29N 52°28' E 004°35'0 0.0
2014-Jul-23 11:32N 52°28' E 004°35'0 0.0
2014-Jul-23 10:32N 52°28' E 004°35'0 0.0
2014-Jul-23 09:32N 52°28' E 004°35'0 0.0
2014-Jul-23 08:32N 52°28' E 004°35'0 0.0
2014-Jul-23 07:34N 52°28' E 004°35'1111.1
2014-Jul-23 06:33N 52°34' E 004°20'1615.9
2014-Jul-23 05:33N 52°45' E 004°01'1917.2
2014-Jul-23 04:25N 52°58' E 003°37'3418.2
2014-Jul-23 02:33N 53°21' E 002°56'2519.0
2014-Jul-23 01:15N 53°36' E 002°23'1319.0
2014-Jul-23 00:33N 53°44' E 002°04'1918.8
2014-Jul-22 23:33N 53°54' E 001°37'2718.7
2014-Jul-22 22:07N 54°08' E 000°59'1118.8
2014-Jul-22 21:33N 54°14' E 000°43'1918.8
2014-Jul-22 20:33N 54°24' E 000°17'1818.4
2014-Jul-22 19:33N 54°35' W 000°10'1918.1
2014-Jul-22 18:31N 54°45' W 000°37'1515.8
2014-Jul-22 17:33N 54°53' W 000°59'7 0.7
2014-Jul-22 07:11N 54°57' W 001°09'1618.6
2014-Jul-22 06:19N 54°48' W 000°46'1518.7
2014-Jul-22 05:30N 54°40' W 000°24'1718.4
2014-Jul-22 04:33N 54°30' E 000°01'1817.8
2014-Jul-22 03:33N 54°21' E 000°27'2117.3
2014-Jul-22 02:22N 54°09' E 000°56'15415.6
2014-Jul-21 16:33N 52°35' E 004°19'1212.0
2014-Jul-21 15:33N 52°28' E 004°35'0 0.0
2014-Jul-21 14:32N 52°28' E 004°35'0 0.0
2014-Jul-21 13:26N 52°28' E 004°35'0 0.0
2014-Jul-21 12:32N 52°28' E 004°35'0 0.0
2014-Jul-21 11:32N 52°28' E 004°35'0 0.0
2014-Jul-21 10:29N 52°28' E 004°35'0 0.0
2014-Jul-21 09:32N 52°28' E 004°35'0 0.0
2014-Jul-21 08:29N 52°28' E 004°35'0 0.0
2014-Jul-21 07:33N 52°28' E 004°35'9 9.1
2014-Jul-21 06:34N 52°33' E 004°22'16417.8
2014-Jul-20 21:22N 54°13' E 000°46'1518.6
2014-Jul-20 20:34N 54°22' E 000°24'1818.4
2014-Jul-20 19:34N 54°31' W 000°02'1818.3
2014-Jul-20 18:34N 54°41' W 000°29'2018.2
2014-Jul-20 17:26N 54°53' W 000°58'1 0.1
2014-Jul-20 06:30N 54°53' W 000°57'1414.0
2014-Jul-20 05:30N 54°45' W 000°37'1515.5
2014-Jul-20 04:33N 54°37' W 000°15'1616.0
2014-Jul-20 03:33N 54°28' E 000°07'1616.3
2014-Jul-20 02:33N 54°19' E 000°31'  

Dump ship's entire track history